Imperial, NE (69033)

8:54 PM MDT on May 26, 2017 (GMT -0600)
West 12th Street | | Change Station
Active Advisory: Severe Thunderstorm Watch

Elev 3287 ft 40.52 °N, 101.65 °W | Updated 3 minutes ago

Scattered Clouds
Scattered Clouds
60.8 °F
Feels Like 60.8 °F
N
1.9
Wind Variable Wind from SW
Gusts 6.8 mph

Today
High -- | Low -- °F
--% Chance of Precip.
Yesterday
High -- | Low -- °F
Precip. -- in
Pressure 29.76 in
Visibility 10.0 miles
Clouds Scattered Clouds 3000 ft
Dew Point 51 °F
Humidity 69%
Rainfall 0.00 in
Snow Depth Not available.
5:21 AM 8:06 PM
Waxing Crescent, 3% visible
METAR KIML 270153Z AUTO 13013G24KT 10SM SCT030 16/11 A2979 RMK AO2 PK WND 16042/0124 LTG DSNT SE AND S RAB0054E47 SLP076 P0001 T01560106
Pressure 29.76 in
Visibility 10.0 miles
Clouds Scattered Clouds 3000 ft
Dew Point 51 °F
Humidity 69%
Rainfall 0.00 in
Snow Depth Not available.
5:21 AM 8:06 PM
Waxing Crescent, 3% visible
METAR KIML 270153Z AUTO 13013G24KT 10SM SCT030 16/11 A2979 RMK AO2 PK WND 16042/0124 LTG DSNT SE AND S RAB0054E47 SLP076 P0001 T01560106

Get Your Daily Forecast Email!

Thanks for signing up!

Be on the lookout for a verification email in your inbox.

You'll start receiving severe weather alerts in your inbox..

×

10-Day Weather Forecast

Almanac

Astronomy

May. 26, 2017 Rise Set
Actual Time
Civil Twilight
Nautical Twilight
Astronomical Twilight
Moon
Length of Visible Light
Length of Day
Tomorrow will be .
, % of the Moon is Illuminated

Today's Extremes

State Highs State Lows

Community

WunderPhotos

Category 6

Welcome to Category 6. This is the collective home for Weather Underground's featured writeups by Dr. Jeff Masters (right), Bob Henson (left), Chris Burt, and other regular contributors.

Nearby

Air Quality

  Air Quality AQ Index Pollutant
Not available.

Snow Depth

Station Depth Elevation

Earthquake Activity

City Distance Mag. Time & Date
Minimum magnitude displayed is 2.5.

Coastal Water Temperatures

Place Temperature

Stations

Nearby Weather Stations

Station Location Temp. Windchill Dew Point Humidity Wind Precip. Elev Updated Type
                   

Watches & Warnings

Severe Thunderstorm Watch
Issued: 8:43 PM MDT May. 26, 2017 – National Weather Service

Severe Thunderstorm Watch 271 remains in effect until 200 am MDT

NE
. Nebraska counties included are

Chase Dundy Hayes
Hitchcock